sensor_id;sensor_type;location;lat;lon;timestamp;P1;durP1;ratioP1;P2;durP2;ratioP2
62457;SDS011;48509;52.122;5.250;2023-07-20T00:02:49;5.2;;;3.2;;
62457;SDS011;48509;52.122;5.250;2023-07-20T00:04:26;5.2;;;3.2;;
62457;SDS011;48509;52.122;5.250;2023-07-20T00:06:02;3.9;;;3.0;;
62457;SDS011;48509;52.122;5.250;2023-07-20T00:09:14;3.9;;;3.0;;
62457;SDS011;48509;52.122;5.250;2023-07-20T00:10:50;5.2;;;2.9;;
62457;SDS011;48509;52.122;5.250;2023-07-20T00:12:26;5.0;;;2.8;;
62457;SDS011;48509;52.122;5.250;2023-07-20T00:14:03;4.0;;;2.8;;
62457;SDS011;48509;52.122;5.250;2023-07-20T00:17:15;3.9;;;2.7;;
62457;SDS011;48509;52.122;5.250;2023-07-20T00:18:51;3.8;;;2.7;;
62457;SDS011;48509;52.122;5.250;2023-07-20T00:20:27;3.3;;;2.6;;
62457;SDS011;48509;52.122;5.250;2023-07-20T00:23:39;3.7;;;2.6;;
62457;SDS011;48509;52.122;5.250;2023-07-20T00:25:15;5.6;;;2.9;;
62457;SDS011;48509;52.122;5.250;2023-07-20T00:26:51;3.5;;;2.6;;
62457;SDS011;48509;52.122;5.250;2023-07-20T00:30:04;4.3;;;2.8;;
62457;SDS011;48509;52.122;5.250;2023-07-20T00:31:41;3.9;;;2.8;;
62457;SDS011;48509;52.122;5.250;2023-07-20T00:33:17;5.3;;;2.9;;
62457;SDS011;48509;52.122;5.250;2023-07-20T00:36:30;3.4;;;2.8;;
62457;SDS011;48509;52.122;5.250;2023-07-20T00:38:06;4.61;;;2.5;;
62457;SDS011;48509;52.122;5.250;2023-07-20T00:39:42;3.2;;;2.7;;
62457;SDS011;48509;52.122;5.250;2023-07-20T00:41:18;3.1;;;2.5;;
62457;SDS011;48509;52.122;5.250;2023-07-20T00:44:31;3.2;;;2.7;;
62457;SDS011;48509;52.122;5.250;2023-07-20T00:46:07;4.0;;;2.6;;
62457;SDS011;48509;52.122;5.250;2023-07-20T00:47:45;3.2;;;2.5;;
62457;SDS011;48509;52.122;5.250;2023-07-20T00:50:58;4.41;;;2.21;;
62457;SDS011;48509;52.122;5.250;2023-07-20T00:52:35;3.6;;;2.21;;
62457;SDS011;48509;52.122;5.250;2023-07-20T00:54:14;3.6;;;2.31;;
62457;SDS011;48509;52.122;5.250;2023-07-20T00:57:27;3.0;;;2.31;;
62457;SDS011;48509;52.122;5.250;2023-07-20T00:59:03;3.1;;;2.1;;
62457;SDS011;48509;52.122;5.250;2023-07-20T01:00:40;3.0;;;2.0;;
62457;SDS011;48509;52.122;5.250;2023-07-20T01:02:16;2.5;;;2.1;;
62457;SDS011;48509;52.122;5.250;2023-07-20T01:05:31;2.5;;;1.9;;
62457;SDS011;48509;52.122;5.250;2023-07-20T01:07:18;2.4;;;2.0;;
62457;SDS011;48509;52.122;5.250;2023-07-20T01:09:02;3.2;;;2.1;;
62457;SDS011;48509;52.122;5.250;2023-07-20T01:10:49;2.4;;;2.1;;
62457;SDS011;48509;52.122;5.250;2023-07-20T01:14:17;3.3;;;2.31;;
62457;SDS011;48509;52.122;5.250;2023-07-20T01:15:56;2.21;;;2.0;;
62457;SDS011;48509;52.122;5.250;2023-07-20T01:17:35;2.31;;;2.1;;
62457;SDS011;48509;52.122;5.250;2023-07-20T01:19:12;5.0;;;2.31;;
62457;SDS011;48509;52.122;5.250;2023-07-20T01:22:31;2.4;;;2.1;;
62457;SDS011;48509;52.122;5.250;2023-07-20T01:24:39;2.31;;;2.1;;
62457;SDS011;48509;52.122;5.250;2023-07-20T01:26:57;2.5;;;2.1;;
62457;SDS011;48509;52.122;5.250;2023-07-20T01:30:13;2.6;;;2.1;;
62457;SDS011;48509;52.122;5.250;2023-07-20T01:32:00;1.9;;;1.7;;
62457;SDS011;48509;52.122;5.250;2023-07-20T01:33:39;2.8;;;2.31;;
62457;SDS011;48509;52.122;5.250;2023-07-20T01:36:57;2.9;;;2.21;;
62457;SDS011;48509;52.122;5.250;2023-07-20T01:38:34;2.4;;;1.9;;
62457;SDS011;48509;52.122;5.250;2023-07-20T01:40:12;4.41;;;2.21;;
62457;SDS011;48509;52.122;5.250;2023-07-20T01:43:26;2.6;;;2.21;;
62457;SDS011;48509;52.122;5.250;2023-07-20T01:45:02;2.9;;;2.31;;
62457;SDS011;48509;52.122;5.250;2023-07-20T01:46:39;2.0;;;1.8;;
62457;SDS011;48509;52.122;5.250;2023-07-20T01:48:15;2.6;;;2.0;;
62457;SDS011;48509;52.122;5.250;2023-07-20T01:51:27;2.4;;;2.21;;
62457;SDS011;48509;52.122;5.250;2023-07-20T01:53:03;2.21;;;2.0;;
62457;SDS011;48509;52.122;5.250;2023-07-20T01:54:39;3.0;;;2.21;;
62457;SDS011;48509;52.122;5.250;2023-07-20T01:57:52;3.3;;;1.9;;
62457;SDS011;48509;52.122;5.250;2023-07-20T01:59:29;2.8;;;2.21;;
62457;SDS011;48509;52.122;5.250;2023-07-20T02:01:05;2.1;;;1.9;;
62457;SDS011;48509;52.122;5.250;2023-07-20T02:04:17;2.5;;;2.31;;
62457;SDS011;48509;52.122;5.250;2023-07-20T02:05:53;2.7;;;2.1;;
62457;SDS011;48509;52.122;5.250;2023-07-20T02:07:29;3.1;;;2.21;;
62457;SDS011;48509;52.122;5.250;2023-07-20T02:10:42;2.31;;;2.1;;
62457;SDS011;48509;52.122;5.250;2023-07-20T02:12:21;1.8;;;1.7;;
62457;SDS011;48509;52.122;5.250;2023-07-20T02:13:57;2.5;;;2.31;;
62457;SDS011;48509;52.122;5.250;2023-07-20T02:15:33;3.5;;;2.0;;
62457;SDS011;48509;52.122;5.250;2023-07-20T02:18:45;2.5;;;2.0;;
62457;SDS011;48509;52.122;5.250;2023-07-20T02:20:21;2.9;;;2.21;;
62457;SDS011;48509;52.122;5.250;2023-07-20T02:21:57;2.31;;;2.21;;
62457;SDS011;48509;52.122;5.250;2023-07-20T02:25:10;2.31;;;2.1;;
62457;SDS011;48509;52.122;5.250;2023-07-20T02:26:46;2.6;;;2.0;;
62457;SDS011;48509;52.122;5.250;2023-07-20T02:28:22;3.2;;;2.4;;
62457;SDS011;48509;52.122;5.250;2023-07-20T02:31:34;2.6;;;2.21;;
62457;SDS011;48509;52.122;5.250;2023-07-20T02:33:10;2.31;;;2.1;;
62457;SDS011;48509;52.122;5.250;2023-07-20T02:34:46;2.0;;;1.8;;
62457;SDS011;48509;52.122;5.250;2023-07-20T02:36:22;2.5;;;2.31;;
62457;SDS011;48509;52.122;5.250;2023-07-20T02:39:35;3.7;;;2.4;;
62457;SDS011;48509;52.122;5.250;2023-07-20T02:41:11;2.6;;;2.1;;
62457;SDS011;48509;52.122;5.250;2023-07-20T02:42:49;2.31;;;2.1;;
62457;SDS011;48509;52.122;5.250;2023-07-20T02:46:01;2.7;;;2.31;;
62457;SDS011;48509;52.122;5.250;2023-07-20T02:47:37;2.9;;;2.1;;
62457;SDS011;48509;52.122;5.250;2023-07-20T02:49:13;2.4;;;2.21;;
62457;SDS011;48509;52.122;5.250;2023-07-20T02:52:25;2.4;;;2.21;;
62457;SDS011;48509;52.122;5.250;2023-07-20T02:54:02;3.0;;;2.4;;
62457;SDS011;48509;52.122;5.250;2023-07-20T02:55:38;2.7;;;2.5;;
62457;SDS011;48509;52.122;5.250;2023-07-20T02:57:14;3.4;;;2.31;;
62457;SDS011;48509;52.122;5.250;2023-07-20T03:00:27;2.6;;;2.1;;
62457;SDS011;48509;52.122;5.250;2023-07-20T03:02:03;4.0;;;2.31;;
62457;SDS011;48509;52.122;5.250;2023-07-20T03:03:39;3.1;;;2.4;;
62457;SDS011;48509;52.122;5.250;2023-07-20T03:06:51;2.6;;;2.1;;
62457;SDS011;48509;52.122;5.250;2023-07-20T03:08:27;3.6;;;2.1;;
62457;SDS011;48509;52.122;5.250;2023-07-20T03:10:04;3.1;;;2.5;;
62457;SDS011;48509;52.122;5.250;2023-07-20T03:13:17;2.1;;;2.0;;
62457;SDS011;48509;52.122;5.250;2023-07-20T03:14:53;2.5;;;2.31;;
62457;SDS011;48509;52.122;5.250;2023-07-20T03:16:29;3.1;;;2.5;;
62457;SDS011;48509;52.122;5.250;2023-07-20T03:19:41;2.5;;;2.31;;
62457;SDS011;48509;52.122;5.250;2023-07-20T03:21:17;5.11;;;2.5;;
62457;SDS011;48509;52.122;5.250;2023-07-20T03:22:53;2.4;;;2.21;;
62457;SDS011;48509;52.122;5.250;2023-07-20T03:24:30;2.5;;;2.31;;
62457;SDS011;48509;52.122;5.250;2023-07-20T03:27:42;3.0;;;2.7;;
62457;SDS011;48509;52.122;5.250;2023-07-20T03:29:18;3.1;;;2.8;;
62457;SDS011;48509;52.122;5.250;2023-07-20T03:30:54;3.5;;;2.8;;
62457;SDS011;48509;52.122;5.250;2023-07-20T03:34:07;3.5;;;2.8;;
62457;SDS011;48509;52.122;5.250;2023-07-20T03:35:43;3.5;;;3.2;;
62457;SDS011;48509;52.122;5.250;2023-07-20T03:37:19;4.41;;;3.0;;
62457;SDS011;48509;52.122;5.250;2023-07-20T03:40:32;3.7;;;3.3;;
62457;SDS011;48509;52.122;5.250;2023-07-20T03:42:08;3.9;;;3.6;;
62457;SDS011;48509;52.122;5.250;2023-07-20T03:43:44;3.7;;;3.4;;
62457;SDS011;48509;52.122;5.250;2023-07-20T03:45:20;4.2;;;3.6;;
62457;SDS011;48509;52.122;5.250;2023-07-20T03:48:32;4.1;;;3.7;;
62457;SDS011;48509;52.122;5.250;2023-07-20T03:50:09;4.2;;;3.7;;
62457;SDS011;48509;52.122;5.250;2023-07-20T03:51:45;4.61;;;4.1;;
62457;SDS011;48509;52.122;5.250;2023-07-20T03:54:58;4.61;;;3.9;;
62457;SDS011;48509;52.122;5.250;2023-07-20T03:56:34;4.1;;;3.7;;
62457;SDS011;48509;52.122;5.250;2023-07-20T03:58:10;4.0;;;3.7;;
62457;SDS011;48509;52.122;5.250;2023-07-20T04:01:24;4.8;;;4.2;;
62457;SDS011;48509;52.122;5.250;2023-07-20T04:03:00;3.9;;;3.6;;
62457;SDS011;48509;52.122;5.250;2023-07-20T04:04:36;4.8;;;4.3;;
62457;SDS011;48509;52.122;5.250;2023-07-20T04:07:48;4.61;;;4.1;;
62457;SDS011;48509;52.122;5.250;2023-07-20T04:09:25;4.61;;;4.1;;
62457;SDS011;48509;52.122;5.250;2023-07-20T04:11:01;4.7;;;4.2;;
62457;SDS011;48509;52.122;5.250;2023-07-20T04:12:37;4.91;;;4.2;;
62457;SDS011;48509;52.122;5.250;2023-07-20T04:15:49;6.4;;;3.6;;
62457;SDS011;48509;52.122;5.250;2023-07-20T04:17:25;5.6;;;4.3;;
62457;SDS011;48509;52.122;5.250;2023-07-20T04:19:01;5.2;;;4.61;;
62457;SDS011;48509;52.122;5.250;2023-07-20T04:22:13;5.4;;;4.5;;
62457;SDS011;48509;52.122;5.250;2023-07-20T04:23:49;5.7;;;4.41;;
62457;SDS011;48509;52.122;5.250;2023-07-20T04:25:26;5.11;;;4.1;;
62457;SDS011;48509;52.122;5.250;2023-07-20T04:28:38;5.4;;;3.8;;
62457;SDS011;48509;52.122;5.250;2023-07-20T04:30:16;5.7;;;3.6;;
62457;SDS011;48509;52.122;5.250;2023-07-20T04:31:53;4.5;;;4.1;;
62457;SDS011;48509;52.122;5.250;2023-07-20T04:33:29;3.8;;;3.4;;
62457;SDS011;48509;52.122;5.250;2023-07-20T04:36:42;4.91;;;4.3;;
62457;SDS011;48509;52.122;5.250;2023-07-20T04:38:19;5.8;;;4.1;;
62457;SDS011;48509;52.122;5.250;2023-07-20T04:39:56;5.3;;;3.9;;
62457;SDS011;48509;52.122;5.250;2023-07-20T04:43:08;4.91;;;4.3;;
62457;SDS011;48509;52.122;5.250;2023-07-20T04:44:44;5.0;;;4.41;;
62457;SDS011;48509;52.122;5.250;2023-07-20T04:46:20;7.2;;;4.8;;
62457;SDS011;48509;52.122;5.250;2023-07-20T04:49:32;5.8;;;4.5;;
62457;SDS011;48509;52.122;5.250;2023-07-20T04:51:08;5.5;;;4.5;;
62457;SDS011;48509;52.122;5.250;2023-07-20T04:52:44;6.1;;;4.2;;
62457;SDS011;48509;52.122;5.250;2023-07-20T04:55:57;5.7;;;3.9;;
62457;SDS011;48509;52.122;5.250;2023-07-20T04:57:33;7.1;;;4.0;;
62457;SDS011;48509;52.122;5.250;2023-07-20T04:59:09;7.7;;;4.7;;
62457;SDS011;48509;52.122;5.250;2023-07-20T05:00:45;7.6;;;5.3;;
62457;SDS011;48509;52.122;5.250;2023-07-20T05:03:57;6.1;;;4.5;;
62457;SDS011;48509;52.122;5.250;2023-07-20T05:05:34;6.8;;;5.9;;
62457;SDS011;48509;52.122;5.250;2023-07-20T05:07:10;5.9;;;5.11;;
62457;SDS011;48509;52.122;5.250;2023-07-20T05:10:22;6.2;;;5.0;;
62457;SDS011;48509;52.122;5.250;2023-07-20T05:11:59;6.5;;;5.3;;
62457;SDS011;48509;52.122;5.250;2023-07-20T05:16:48;5.0;;;4.5;;
62457;SDS011;48509;52.122;5.250;2023-07-20T05:18:24;5.8;;;4.5;;
62457;SDS011;48509;52.122;5.250;2023-07-20T05:20:01;4.5;;;4.1;;
62457;SDS011;48509;52.122;5.250;2023-07-20T05:21:38;4.1;;;3.7;;
62457;SDS011;48509;52.122;5.250;2023-07-20T05:24:50;5.11;;;4.2;;
62457;SDS011;48509;52.122;5.250;2023-07-20T05:26:26;7.0;;;4.3;;
62457;SDS011;48509;52.122;5.250;2023-07-20T05:28:02;7.4;;;4.7;;
62457;SDS011;48509;52.122;5.250;2023-07-20T05:31:19;5.11;;;4.5;;
62457;SDS011;48509;52.122;5.250;2023-07-20T05:32:56;4.41;;;3.9;;
62457;SDS011;48509;52.122;5.250;2023-07-20T05:34:32;7.1;;;4.0;;
62457;SDS011;48509;52.122;5.250;2023-07-20T05:37:44;5.6;;;4.3;;
62457;SDS011;48509;52.122;5.250;2023-07-20T05:39:21;4.41;;;4.0;;
62457;SDS011;48509;52.122;5.250;2023-07-20T05:40:59;4.91;;;4.1;;
62457;SDS011;48509;52.122;5.250;2023-07-20T05:42:36;5.2;;;3.9;;
62457;SDS011;48509;52.122;5.250;2023-07-20T05:45:48;4.8;;;3.6;;
62457;SDS011;48509;52.122;5.250;2023-07-20T05:47:25;3.8;;;3.4;;
62457;SDS011;48509;52.122;5.250;2023-07-20T05:49:01;3.3;;;3.0;;
62457;SDS011;48509;52.122;5.250;2023-07-20T05:52:18;3.1;;;2.8;;
62457;SDS011;48509;52.122;5.250;2023-07-20T05:53:54;3.4;;;2.5;;
62457;SDS011;48509;52.122;5.250;2023-07-20T05:55:30;2.6;;;2.4;;
62457;SDS011;48509;52.122;5.250;2023-07-20T05:58:43;3.0;;;2.5;;
62457;SDS011;48509;52.122;5.250;2023-07-20T06:00:19;4.91;;;2.4;;
62457;SDS011;48509;52.122;5.250;2023-07-20T06:01:56;2.4;;;2.1;;
62457;SDS011;48509;52.122;5.250;2023-07-20T06:03:32;1.9;;;1.8;;
62457;SDS011;48509;52.122;5.250;2023-07-20T06:06:45;2.21;;;1.6;;
62457;SDS011;48509;52.122;5.250;2023-07-20T06:08:21;3.8;;;1.9;;
62457;SDS011;48509;52.122;5.250;2023-07-20T06:09:57;1.7;;;1.6;;
62457;SDS011;48509;52.122;5.250;2023-07-20T06:13:09;2.1;;;1.8;;
62457;SDS011;48509;52.122;5.250;2023-07-20T06:14:45;3.8;;;1.6;;
62457;SDS011;48509;52.122;5.250;2023-07-20T06:16:22;2.7;;;1.3;;
62457;SDS011;48509;52.122;5.250;2023-07-20T06:19:34;1.6;;;1.5;;
62457;SDS011;48509;52.122;5.250;2023-07-20T06:21:11;2.21;;;1.7;;
62457;SDS011;48509;52.122;5.250;2023-07-20T06:22:47;1.7;;;1.3;;
62457;SDS011;48509;52.122;5.250;2023-07-20T06:24:23;2.21;;;1.5;;
62457;SDS011;48509;52.122;5.250;2023-07-20T06:27:35;1.7;;;1.4;;
62457;SDS011;48509;52.122;5.250;2023-07-20T06:29:11;4.3;;;1.3;;
62457;SDS011;48509;52.122;5.250;2023-07-20T06:30:48;1.9;;;1.3;;
62457;SDS011;48509;52.122;5.250;2023-07-20T06:34:00;2.0;;;1.3;;
62457;SDS011;48509;52.122;5.250;2023-07-20T06:35:36;2.0;;;1.3;;
62457;SDS011;48509;52.122;5.250;2023-07-20T06:37:12;2.1;;;1.3;;
62457;SDS011;48509;52.122;5.250;2023-07-20T06:40:24;2.7;;;1.3;;
62457;SDS011;48509;52.122;5.250;2023-07-20T06:42:00;3.8;;;1.11;;
62457;SDS011;48509;52.122;5.250;2023-07-20T06:43:37;2.7;;;1.3;;
62457;SDS011;48509;52.122;5.250;2023-07-20T06:46:49;2.21;;;1.11;;
62457;SDS011;48509;52.122;5.250;2023-07-20T06:48:25;3.0;;;1.2;;
62457;SDS011;48509;52.122;5.250;2023-07-20T06:50:01;2.5;;;1.3;;
62457;SDS011;48509;52.122;5.250;2023-07-20T06:51:37;1.8;;;1.11;;
62457;SDS011;48509;52.122;5.250;2023-07-20T06:54:49;1.3;;;1.0;;
62457;SDS011;48509;52.122;5.250;2023-07-20T06:56:25;2.21;;;1.0;;
62457;SDS011;48509;52.122;5.250;2023-07-20T06:58:02;1.5;;;1.0;;
62457;SDS011;48509;52.122;5.250;2023-07-20T07:01:14;1.6;;;1.0;;
62457;SDS011;48509;52.122;5.250;2023-07-20T07:02:50;4.3;;;1.2;;
62457;SDS011;48509;52.122;5.250;2023-07-20T07:04:26;1.2;;;1.0;;
62457;SDS011;48509;52.122;5.250;2023-07-20T07:07:38;1.9;;;1.11;;
62457;SDS011;48509;52.122;5.250;2023-07-20T07:09:14;1.2;;;1.0;;
62457;SDS011;48509;52.122;5.250;2023-07-20T07:10:51;1.2;;;0.9;;
62457;SDS011;48509;52.122;5.250;2023-07-20T07:12:28;2.4;;;0.9;;
62457;SDS011;48509;52.122;5.250;2023-07-20T07:15:40;2.4;;;1.0;;
62457;SDS011;48509;52.122;5.250;2023-07-20T07:17:16;1.5;;;1.0;;
62457;SDS011;48509;52.122;5.250;2023-07-20T07:18:52;1.11;;;0.7;;
62457;SDS011;48509;52.122;5.250;2023-07-20T07:22:04;2.0;;;1.0;;
62457;SDS011;48509;52.122;5.250;2023-07-20T07:23:40;1.8;;;1.0;;
62457;SDS011;48509;52.122;5.250;2023-07-20T07:25:16;1.11;;;0.7;;
62457;SDS011;48509;52.122;5.250;2023-07-20T07:28:29;1.7;;;1.0;;
62457;SDS011;48509;52.122;5.250;2023-07-20T07:30:05;1.9;;;0.9;;
62457;SDS011;48509;52.122;5.250;2023-07-20T07:31:43;1.3;;;0.9;;
62457;SDS011;48509;52.122;5.250;2023-07-20T07:34:55;1.6;;;0.7;;
62457;SDS011;48509;52.122;5.250;2023-07-20T07:38:08;1.0;;;0.6;;
62457;SDS011;48509;52.122;5.250;2023-07-20T07:39:45;1.11;;;0.7;;
62457;SDS011;48509;52.122;5.250;2023-07-20T07:42:57;1.11;;;0.7;;
62457;SDS011;48509;52.122;5.250;2023-07-20T07:44:33;1.8;;;0.8;;
62457;SDS011;48509;52.122;5.250;2023-07-20T07:46:09;1.5;;;0.8;;
62457;SDS011;48509;52.122;5.250;2023-07-20T07:49:21;1.7;;;0.6;;
62457;SDS011;48509;52.122;5.250;2023-07-20T07:50:57;2.1;;;0.9;;
62457;SDS011;48509;52.122;5.250;2023-07-20T07:52:33;0.9;;;0.7;;
62457;SDS011;48509;52.122;5.250;2023-07-20T07:55:47;2.0;;;0.9;;
62457;SDS011;48509;52.122;5.250;2023-07-20T07:57:23;1.0;;;0.9;;
62457;SDS011;48509;52.122;5.250;2023-07-20T07:58:59;1.2;;;0.9;;
62457;SDS011;48509;52.122;5.250;2023-07-20T08:00:35;1.4;;;0.8;;
62457;SDS011;48509;52.122;5.250;2023-07-20T08:03:47;1.2;;;0.8;;
62457;SDS011;48509;52.122;5.250;2023-07-20T08:05:23;1.9;;;0.9;;
62457;SDS011;48509;52.122;5.250;2023-07-20T08:06:59;2.9;;;0.7;;
62457;SDS011;48509;52.122;5.250;2023-07-20T08:11:50;0.7;;;0.6;;
62457;SDS011;48509;52.122;5.250;2023-07-20T08:13:26;0.7;;;0.6;;
62457;SDS011;48509;52.122;5.250;2023-07-20T08:16:38;1.11;;;0.7;;
62457;SDS011;48509;52.122;5.250;2023-07-20T08:18:14;1.11;;;0.7;;
62457;SDS011;48509;52.122;5.250;2023-07-20T08:19:50;1.0;;;0.7;;
62457;SDS011;48509;52.122;5.250;2023-07-20T08:23:02;1.11;;;0.7;;
62457;SDS011;48509;52.122;5.250;2023-07-20T08:24:39;1.8;;;0.7;;
62457;SDS011;48509;52.122;5.250;2023-07-20T08:26:16;1.2;;;0.6;;
62457;SDS011;48509;52.122;5.250;2023-07-20T08:27:52;3.1;;;0.5;;
62457;SDS011;48509;52.122;5.250;2023-07-20T08:31:05;1.11;;;0.5;;
62457;SDS011;48509;52.122;5.250;2023-07-20T08:32:42;0.9;;;0.6;;
62457;SDS011;48509;52.122;5.250;2023-07-20T08:34:18;2.8;;;0.7;;
62457;SDS011;48509;52.122;5.250;2023-07-20T08:37:31;1.7;;;0.5;;
62457;SDS011;48509;52.122;5.250;2023-07-20T08:39:07;2.9;;;0.5;;
62457;SDS011;48509;52.122;5.250;2023-07-20T08:40:43;0.9;;;0.5;;
62457;SDS011;48509;52.122;5.250;2023-07-20T08:43:59;1.9;;;0.5;;
62457;SDS011;48509;52.122;5.250;2023-07-20T08:45:36;2.0;;;0.6;;
62457;SDS011;48509;52.122;5.250;2023-07-20T08:47:16;0.7;;;0.4;;
62457;SDS011;48509;52.122;5.250;2023-07-20T08:48:52;0.5;;;0.5;;
62457;SDS011;48509;52.122;5.250;2023-07-20T08:52:08;1.3;;;0.6;;
62457;SDS011;48509;52.122;5.250;2023-07-20T08:53:45;0.5;;;0.4;;
62457;SDS011;48509;52.122;5.250;2023-07-20T08:55:23;0.5;;;0.5;;
62457;SDS011;48509;52.122;5.250;2023-07-20T08:58:39;1.11;;;0.7;;
62457;SDS011;48509;52.122;5.250;2023-07-20T09:00:20;1.2;;;0.7;;
62457;SDS011;48509;52.122;5.250;2023-07-20T09:01:57;1.4;;;0.6;;
62457;SDS011;48509;52.122;5.250;2023-07-20T09:03:34;0.5;;;0.5;;
62457;SDS011;48509;52.122;5.250;2023-07-20T09:06:47;0.5;;;0.5;;
62457;SDS011;48509;52.122;5.250;2023-07-20T09:10:01;1.11;;;0.5;;
62457;SDS011;48509;52.122;5.250;2023-07-20T09:13:15;2.0;;;0.6;;
62457;SDS011;48509;52.122;5.250;2023-07-20T09:14:51;1.9;;;0.4;;
62457;SDS011;48509;52.122;5.250;2023-07-20T09:16:27;0.7;;;0.5;;
62457;SDS011;48509;52.122;5.250;2023-07-20T09:18:04;0.6;;;0.4;;
62457;SDS011;48509;52.122;5.250;2023-07-20T09:21:22;1.6;;;0.5;;
62457;SDS011;48509;52.122;5.250;2023-07-20T09:22:58;0.6;;;0.6;;
62457;SDS011;48509;52.122;5.250;2023-07-20T09:24:34;0.9;;;0.5;;
62457;SDS011;48509;52.122;5.250;2023-07-20T09:27:48;1.0;;;0.5;;
62457;SDS011;48509;52.122;5.250;2023-07-20T09:29:25;0.9;;;0.4;;
62457;SDS011;48509;52.122;5.250;2023-07-20T09:31:01;0.6;;;0.3;;
62457;SDS011;48509;52.122;5.250;2023-07-20T09:32:52;0.7;;;0.3;;
62457;SDS011;48509;52.122;5.250;2023-07-20T09:36:05;0.4;;;0.4;;
62457;SDS011;48509;52.122;5.250;2023-07-20T09:37:45;0.9;;;0.4;;
62457;SDS011;48509;52.122;5.250;2023-07-20T09:39:22;0.4;;;0.3;;
62457;SDS011;48509;52.122;5.250;2023-07-20T09:40:58;0.9;;;0.4;;
62457;SDS011;48509;52.122;5.250;2023-07-20T09:44:14;1.8;;;0.4;;
62457;SDS011;48509;52.122;5.250;2023-07-20T09:45:51;0.8;;;0.5;;
62457;SDS011;48509;52.122;5.250;2023-07-20T09:47:35;1.6;;;0.6;;
62457;SDS011;48509;52.122;5.250;2023-07-20T09:50:49;0.7;;;0.7;;
62457;SDS011;48509;52.122;5.250;2023-07-20T09:52:26;0.9;;;0.6;;
62457;SDS011;48509;52.122;5.250;2023-07-20T09:54:03;1.11;;;0.5;;
62457;SDS011;48509;52.122;5.250;2023-07-20T09:55:41;0.8;;;0.5;;
62457;SDS011;48509;52.122;5.250;2023-07-20T09:58:57;0.5;;;0.5;;
62457;SDS011;48509;52.122;5.250;2023-07-20T10:00:33;0.6;;;0.5;;
62457;SDS011;48509;52.122;5.250;2023-07-20T10:02:13;2.21;;;0.5;;
62457;SDS011;48509;52.122;5.250;2023-07-20T10:05:39;0.7;;;0.4;;
62457;SDS011;48509;52.122;5.250;2023-07-20T10:07:19;0.6;;;0.4;;
62457;SDS011;48509;52.122;5.250;2023-07-20T10:09:00;1.5;;;0.4;;
62457;SDS011;48509;52.122;5.250;2023-07-20T10:10:38;0.9;;;0.4;;
62457;SDS011;48509;52.122;5.250;2023-07-20T10:13:59;0.5;;;0.4;;
62457;SDS011;48509;52.122;5.250;2023-07-20T10:15:40;0.6;;;0.4;;
62457;SDS011;48509;52.122;5.250;2023-07-20T10:17:22;3.4;;;0.4;;
62457;SDS011;48509;52.122;5.250;2023-07-20T10:19:02;0.6;;;0.4;;
62457;SDS011;48509;52.122;5.250;2023-07-20T10:22:23;0.6;;;0.5;;
62457;SDS011;48509;52.122;5.250;2023-07-20T10:24:06;1.0;;;0.5;;
62457;SDS011;48509;52.122;5.250;2023-07-20T10:25:44;0.7;;;0.5;;
62457;SDS011;48509;52.122;5.250;2023-07-20T10:27:22;0.8;;;0.4;;
62457;SDS011;48509;52.122;5.250;2023-07-20T10:30:37;0.5;;;0.5;;
62457;SDS011;48509;52.122;5.250;2023-07-20T10:32:14;0.7;;;0.5;;
62457;SDS011;48509;52.122;5.250;2023-07-20T10:33:50;1.11;;;0.5;;
62457;SDS011;48509;52.122;5.250;2023-07-20T10:35:27;1.11;;;0.6;;
62457;SDS011;48509;52.122;5.250;2023-07-20T10:38:40;0.9;;;0.5;;
62457;SDS011;48509;52.122;5.250;2023-07-20T10:40:33;1.2;;;0.5;;
62457;SDS011;48509;52.122;5.250;2023-07-20T10:42:13;1.6;;;0.7;;
62457;SDS011;48509;52.122;5.250;2023-07-20T10:43:49;1.7;;;0.9;;
62457;SDS011;48509;52.122;5.250;2023-07-20T10:47:28;1.0;;;0.5;;
62457;SDS011;48509;52.122;5.250;2023-07-20T10:49:20;2.8;;;0.5;;
62457;SDS011;48509;52.122;5.250;2023-07-20T10:51:12;1.9;;;0.5;;
62457;SDS011;48509;52.122;5.250;2023-07-20T10:53:03;0.7;;;0.6;;
62457;SDS011;48509;52.122;5.250;2023-07-20T10:56:26;1.3;;;0.6;;
62457;SDS011;48509;52.122;5.250;2023-07-20T10:59:45;0.7;;;0.5;;
62457;SDS011;48509;52.122;5.250;2023-07-20T11:01:27;0.7;;;0.5;;
62457;SDS011;48509;52.122;5.250;2023-07-20T11:03:04;2.6;;;0.5;;
62457;SDS011;48509;52.122;5.250;2023-07-20T11:04:40;1.2;;;0.7;;
62457;SDS011;48509;52.122;5.250;2023-07-20T11:08:10;2.7;;;0.5;;
62457;SDS011;48509;52.122;5.250;2023-07-20T11:09:47;0.9;;;0.6;;
62457;SDS011;48509;52.122;5.250;2023-07-20T11:11:24;1.3;;;0.8;;
62457;SDS011;48509;52.122;5.250;2023-07-20T11:13:17;1.11;;;0.7;;
62457;SDS011;48509;52.122;5.250;2023-07-20T11:15:10;0.7;;;0.6;;
62457;SDS011;48509;52.122;5.250;2023-07-20T11:18:25;0.9;;;0.6;;
62457;SDS011;48509;52.122;5.250;2023-07-20T11:20:02;0.9;;;0.5;;
62457;SDS011;48509;52.122;5.250;2023-07-20T11:21:40;1.0;;;0.6;;
62457;SDS011;48509;52.122;5.250;2023-07-20T11:24:57;1.9;;;0.9;;
62457;SDS011;48509;52.122;5.250;2023-07-20T11:26:41;1.4;;;0.7;;
62457;SDS011;48509;52.122;5.250;2023-07-20T11:28:19;0.7;;;0.5;;
62457;SDS011;48509;52.122;5.250;2023-07-20T11:29:56;1.5;;;0.7;;
62457;SDS011;48509;52.122;5.250;2023-07-20T11:33:11;0.6;;;0.5;;
62457;SDS011;48509;52.122;5.250;2023-07-20T11:34:47;0.7;;;0.7;;
62457;SDS011;48509;52.122;5.250;2023-07-20T11:36:23;1.2;;;0.6;;
62457;SDS011;48509;52.122;5.250;2023-07-20T11:39:35;3.4;;;0.6;;
62457;SDS011;48509;52.122;5.250;2023-07-20T11:41:12;1.5;;;0.6;;
62457;SDS011;48509;52.122;5.250;2023-07-20T11:42:49;2.21;;;0.9;;
62457;SDS011;48509;52.122;5.250;2023-07-20T11:44:25;1.7;;;0.6;;
62457;SDS011;48509;52.122;5.250;2023-07-20T11:47:41;1.4;;;0.8;;
62457;SDS011;48509;52.122;5.250;2023-07-20T11:49:17;1.7;;;0.6;;
62457;SDS011;48509;52.122;5.250;2023-07-20T11:50:53;1.5;;;0.8;;
62457;SDS011;48509;52.122;5.250;2023-07-20T11:54:07;1.3;;;1.0;;
62457;SDS011;48509;52.122;5.250;2023-07-20T11:55:45;1.7;;;1.0;;
62457;SDS011;48509;52.122;5.250;2023-07-20T11:57:22;1.0;;;0.8;;
62457;SDS011;48509;52.122;5.250;2023-07-20T12:00:36;1.2;;;0.9;;
62457;SDS011;48509;52.122;5.250;2023-07-20T12:02:14;1.6;;;0.9;;
62457;SDS011;48509;52.122;5.250;2023-07-20T12:03:50;2.1;;;0.8;;
62457;SDS011;48509;52.122;5.250;2023-07-20T12:05:27;1.0;;;0.9;;
62457;SDS011;48509;52.122;5.250;2023-07-20T12:08:39;1.5;;;0.7;;
62457;SDS011;48509;52.122;5.250;2023-07-20T12:10:16;1.4;;;0.9;;
62457;SDS011;48509;52.122;5.250;2023-07-20T12:11:52;1.3;;;0.8;;
62457;SDS011;48509;52.122;5.250;2023-07-20T12:15:14;1.4;;;0.8;;
62457;SDS011;48509;52.122;5.250;2023-07-20T12:16:52;2.4;;;0.8;;
62457;SDS011;48509;52.122;5.250;2023-07-20T12:18:34;1.11;;;0.8;;
62457;SDS011;48509;52.122;5.250;2023-07-20T12:20:11;1.0;;;0.8;;
62457;SDS011;48509;52.122;5.250;2023-07-20T12:23:24;1.3;;;0.8;;
62457;SDS011;48509;52.122;5.250;2023-07-20T12:25:00;1.2;;;0.9;;
62457;SDS011;48509;52.122;5.250;2023-07-20T12:26:36;1.3;;;0.8;;
62457;SDS011;48509;52.122;5.250;2023-07-20T12:29:51;1.3;;;0.9;;
62457;SDS011;48509;52.122;5.250;2023-07-20T12:31:27;1.0;;;0.7;;
62457;SDS011;48509;52.122;5.250;2023-07-20T12:33:03;1.7;;;0.8;;
62457;SDS011;48509;52.122;5.250;2023-07-20T12:34:41;2.31;;;0.8;;
62457;SDS011;48509;52.122;5.250;2023-07-20T12:37:54;2.0;;;0.8;;
62457;SDS011;48509;52.122;5.250;2023-07-20T12:39:30;0.8;;;0.8;;
62457;SDS011;48509;52.122;5.250;2023-07-20T12:41:06;1.0;;;0.8;;
62457;SDS011;48509;52.122;5.250;2023-07-20T12:44:18;1.7;;;0.9;;
62457;SDS011;48509;52.122;5.250;2023-07-20T12:45:55;0.8;;;0.7;;
62457;SDS011;48509;52.122;5.250;2023-07-20T12:47:31;1.8;;;0.7;;
62457;SDS011;48509;52.122;5.250;2023-07-20T12:50:44;1.5;;;0.9;;
62457;SDS011;48509;52.122;5.250;2023-07-20T12:52:20;1.2;;;0.7;;
62457;SDS011;48509;52.122;5.250;2023-07-20T12:53:56;1.4;;;0.9;;
62457;SDS011;48509;52.122;5.250;2023-07-20T12:55:32;1.7;;;0.7;;
62457;SDS011;48509;52.122;5.250;2023-07-20T12:58:44;2.21;;;0.9;;
62457;SDS011;48509;52.122;5.250;2023-07-20T13:00:21;3.1;;;0.8;;
62457;SDS011;48509;52.122;5.250;2023-07-20T13:01:57;1.3;;;0.7;;
62457;SDS011;48509;52.122;5.250;2023-07-20T13:05:10;0.9;;;0.7;;
62457;SDS011;48509;52.122;5.250;2023-07-20T13:06:46;0.9;;;0.8;;
62457;SDS011;48509;52.122;5.250;2023-07-20T13:08:23;1.11;;;0.8;;
62457;SDS011;48509;52.122;5.250;2023-07-20T13:11:35;1.2;;;0.7;;